Time;durP1;ratioP1;P1;durP2;ratioP2;P2;SDS_P1;SDS_P2;PMS_P1;PMS_P2;Temp;Humidity;BMP_temperature;BMP_pressure;BME280_temperature;BME280_humidity;BME280_pressure;Samples;Min_cycle;Max_cycle;Signal;HPM_P1;HPM_P2
2022/04/16 00:00:59;;;;;;;1.50;1.40;;;;;;;13.94;49.14;101382.53;5111582;28;20859;-80
2022/04/16 00:03:24;;;;;;;1.70;1.05;;;;;;;13.92;49.69;101390.97;5111380;28;20392;-81
2022/04/16 00:05:53;;;;;;;1.08;1.08;;;;;;;13.95;49.46;101385.03;5110304;28;20398;-80
2022/04/16 00:08:23;;;;;;;1.10;1.00;;;;;;;13.95;49.23;101387.75;5110328;28;20797;-81
2022/04/16 00:10:48;;;;;;;1.50;1.02;;;;;;;13.91;49.50;101389.31;5095763;28;20877;-81
2022/04/16 00:13:14;;;;;;;0.98;0.98;;;;;;;13.86;49.48;101388.41;5111836;28;20388;-81
2022/04/16 00:15:40;;;;;;;1.05;1.05;;;;;;;13.88;49.88;101391.69;5111718;28;20428;-81
2022/04/16 00:18:05;;;;;;;0.90;0.90;;;;;;;13.84;49.49;101390.53;5110568;28;20412;-80
2022/04/16 00:20:31;;;;;;;0.93;0.90;;;;;;;13.82;49.46;101387.22;5111753;28;20396;-80
2022/04/16 00:22:56;;;;;;;0.80;0.80;;;;;;;13.78;49.51;101399.69;5108919;28;20408;-80
2022/04/16 00:25:22;;;;;;;1.27;1.10;;;;;;;13.79;49.92;101388.53;5110434;28;20907;-80
2022/04/16 00:27:47;;;;;;;1.13;1.13;;;;;;;13.75;49.98;101397.44;5111152;28;20437;-81
2022/04/16 00:30:13;;;;;;;0.90;0.90;;;;;;;13.65;49.75;101389.06;5111511;28;20412;-81
2022/04/16 00:32:40;;;;;;;1.00;1.00;;;;;;;13.63;49.98;101389.31;5111725;28;20390;-80
2022/04/16 00:35:07;;;;;;;1.30;1.10;;;;;;;13.67;50.13;101387.75;5111628;28;20910;-80
2022/04/16 00:37:33;;;;;;;0.85;0.85;;;;;;;13.58;50.09;101389.22;5109747;28;20970;-80
2022/04/16 00:39:58;;;;;;;0.93;0.93;;;;;;;13.55;50.21;101386.13;5111394;28;20404;-80
2022/04/16 00:42:24;;;;;;;0.90;0.90;;;;;;;13.55;50.29;101381.53;5111777;28;20434;-81
2022/04/16 00:44:49;;;;;;;0.87;0.87;;;;;;;13.48;50.54;101389.00;5111466;28;20397;-81
2022/04/16 00:47:14;;;;;;;1.00;1.00;;;;;;;13.49;50.52;101383.31;5111682;28;20482;-80
2022/04/16 00:49:39;;;;;;;1.50;0.80;;;;;;;13.47;50.48;101382.72;5111359;28;20412;-80
2022/04/16 00:52:05;;;;;;;1.13;1.13;;;;;;;13.47;50.31;101384.63;5111384;28;20412;-81
2022/04/16 00:54:30;;;;;;;1.00;1.00;;;;;;;13.34;50.88;101388.44;5110349;28;20404;-81
2022/04/16 00:56:56;;;;;;;1.05;1.00;;;;;;;13.23;50.80;101381.16;5111708;28;20468;-81
2022/04/16 00:59:21;;;;;;;1.27;1.20;;;;;;;13.23;50.81;101377.59;5110080;28;20495;-80
2022/04/16 01:01:47;;;;;;;1.03;1.03;;;;;;;13.24;50.97;101384.66;5111286;28;20400;-80
2022/04/16 01:04:13;;;;;;;0.90;0.90;;;;;;;13.25;51.00;101376.28;5111070;28;20400;-81
2022/04/16 01:06:40;;;;;;;1.00;1.00;;;;;;;13.27;51.06;101386.94;5108560;28;20436;-81
2022/04/16 01:09:06;;;;;;;1.33;1.00;;;;;;;13.24;51.29;101385.50;5110890;28;20403;-81
2022/04/16 01:11:32;;;;;;;1.10;1.00;;;;;;;13.14;51.47;101384.47;5108057;28;20926;-81
2022/04/16 01:14:00;;;;;;;1.05;1.05;;;;;;;13.09;51.17;101381.63;5110399;28;20475;-81
2022/04/16 01:16:29;;;;;;;1.20;1.00;;;;;;;13.04;51.46;101385.03;5113581;28;20457;-81
2022/04/16 01:18:55;;;;;;;1.17;1.10;;;;;;;13.09;51.66;101378.91;5109291;28;20391;-81
2022/04/16 01:21:20;;;;;;;1.15;1.15;;;;;;;13.09;51.59;101384.34;5114618;28;20396;-81
2022/04/16 01:23:46;;;;;;;1.80;1.40;;;;;;;13.07;51.43;101378.31;5112235;28;20801;-81
2022/04/16 01:26:12;;;;;;;1.10;1.10;;;;;;;13.04;51.86;101379.59;5114871;28;20495;-81
2022/04/16 01:28:38;;;;;;;1.05;1.00;;;;;;;12.95;51.80;101370.97;5114697;28;20404;-81
2022/04/16 01:31:03;;;;;;;1.00;1.00;;;;;;;12.93;51.84;101375.84;5114457;28;20400;-80
2022/04/16 01:33:30;;;;;;;1.00;1.00;;;;;;;12.84;52.37;101379.97;5114628;28;20418;-81
2022/04/16 01:35:56;;;;;;;0.97;0.97;;;;;;;12.76;52.36;101385.78;5113285;28;20400;-81
2022/04/16 01:38:25;;;;;;;10.02;1.35;;;;;;;12.72;52.72;101387.31;5114361;28;20495;-81
2022/04/16 01:40:52;;;;;;;3.10;2.80;;;;;;;12.72;52.47;101392.75;5114262;28;20381;-81
2022/04/16 01:43:18;;;;;;;2.10;1.80;;;;;;;12.70;52.63;101388.59;5114402;28;20380;-81
2022/04/16 01:45:43;;;;;;;2.00;1.20;;;;;;;12.72;53.06;101397.34;5114302;28;20398;-81
2022/04/16 01:48:08;;;;;;;1.70;1.60;;;;;;;12.64;53.14;101393.09;5114373;28;20394;-81
2022/04/16 01:50:34;;;;;;;1.00;1.00;;;;;;;12.64;53.08;101393.09;5112882;28;20941;-80
2022/04/16 01:52:59;;;;;;;0.90;0.90;;;;;;;12.63;53.00;101396.88;5114336;28;20489;-80
2022/04/16 01:55:24;;;;;;;1.43;1.10;;;;;;;12.58;52.99;101399.47;5114272;28;20384;-81
2022/04/16 01:57:50;;;;;;;1.10;1.10;;;;;;;12.59;53.28;101395.69;5114010;28;20731;-81
2022/04/16 02:00:16;;;;;;;1.30;1.30;;;;;;;12.57;53.04;101391.56;5113970;28;20924;-81
2022/04/16 02:02:42;;;;;;;1.20;1.20;;;;;;;12.54;53.21;101389.31;5113917;28;20393;-81
2022/04/16 02:05:09;;;;;;;0.90;0.90;;;;;;;12.53;53.44;101388.47;5112327;28;20408;-81
2022/04/16 02:07:34;;;;;;;1.20;1.20;;;;;;;12.44;53.70;101396.16;5112836;28;20736;-81
2022/04/16 02:10:00;;;;;;;1.50;1.10;;;;;;;12.38;53.60;101391.63;5113910;28;20388;-81
2022/04/16 02:12:26;;;;;;;1.30;1.20;;;;;;;12.35;53.72;101402.16;5113639;28;20396;-81
2022/04/16 02:14:51;;;;;;;1.33;1.23;;;;;;;12.33;54.02;101404.28;5113608;28;20403;-81
2022/04/16 02:17:16;;;;;;;1.33;1.33;;;;;;;12.33;53.90;101391.53;5113379;28;20785;-81
2022/04/16 02:19:43;;;;;;;1.40;1.20;;;;;;;12.34;54.04;101397.78;5109952;28;20424;-80
2022/04/16 02:22:08;;;;;;;1.23;1.23;;;;;;;12.25;53.98;101394.56;5113054;28;20396;-80
2022/04/16 02:24:33;;;;;;;1.40;1.40;;;;;;;12.14;54.79;101398.09;5113268;28;20785;-81
2022/04/16 02:26:58;;;;;;;1.17;1.17;;;;;;;12.10;54.41;101399.63;5113538;28;20412;-81
2022/04/16 02:29:24;;;;;;;1.20;1.10;;;;;;;12.11;54.73;101393.13;5113389;28;20495;-81
2022/04/16 02:31:49;;;;;;;1.30;1.20;;;;;;;12.14;54.69;101394.56;5111766;28;20433;-80
2022/04/16 02:34:14;;;;;;;1.10;1.10;;;;;;;12.15;54.49;101390.78;5111653;28;20824;-80
2022/04/16 02:36:40;;;;;;;1.40;1.40;;;;;;;12.12;54.47;101392.06;5112910;28;20416;-80
2022/04/16 02:39:06;;;;;;;1.20;1.20;;;;;;;12.11;54.47;101385.00;5113472;28;20411;-81
2022/04/16 02:41:31;;;;;;;1.35;1.35;;;;;;;12.05;54.37;101399.50;5113074;28;20393;-80
2022/04/16 02:43:58;;;;;;;2.70;1.30;;;;;;;11.94;54.77;101405.72;5113169;28;20399;-80
2022/04/16 02:49:09;;;;;;;1.40;1.37;;;;;;;12.03;54.77;101398.88;5111322;28;20516;-81
2022/04/16 02:51:34;;;;;;;1.80;1.55;;;;;;;11.98;55.12;101390.63;5111252;28;20399;-81
2022/04/16 02:53:59;;;;;;;1.70;1.60;;;;;;;11.94;55.06;101394.84;5113038;28;20381;-80
2022/04/16 02:56:25;;;;;;;2.73;1.83;;;;;;;11.87;54.85;101403.09;5108473;28;20392;-81
2022/04/16 02:58:50;;;;;;;1.60;1.20;;;;;;;11.73;55.74;101401.59;5110647;28;20457;-81
2022/04/16 03:01:16;;;;;;;1.40;1.30;;;;;;;11.76;55.47;101412.00;5111664;28;20412;-80
2022/04/16 03:03:41;;;;;;;1.23;1.23;;;;;;;11.86;55.42;101411.47;5101209;28;20404;-81
2022/04/16 03:06:07;;;;;;;1.48;1.48;;;;;;;11.77;55.53;101408.25;5107303;28;20405;-80
2022/04/16 03:08:32;;;;;;;1.50;1.40;;;;;;;11.76;55.60;101419.31;5111607;28;20401;-81
2022/04/16 03:10:57;;;;;;;2.23;1.37;;;;;;;11.71;55.61;101409.16;5112269;28;20385;-80
2022/04/16 03:13:23;;;;;;;1.70;1.70;;;;;;;11.70;55.79;101425.66;5112820;28;20495;-81
2022/04/16 03:18:32;;;;;;;1.70;1.60;;;;;;;11.69;55.70;101411.22;5111801;28;20388;-81
2022/04/16 03:20:59;;;;;;;2.00;1.70;;;;;;;11.70;55.73;101415.66;5112766;28;20381;-80
2022/04/16 03:23:24;;;;;;;1.60;1.60;;;;;;;11.65;55.73;101412.78;5112441;28;20395;-81
2022/04/16 03:25:50;;;;;;;1.60;1.60;;;;;;;11.65;56.06;101412.78;5112115;28;20751;-81
2022/04/16 03:28:15;;;;;;;1.60;1.60;;;;;;;11.62;55.80;101406.97;5112428;28;20399;-80
2022/04/16 03:30:41;;;;;;;2.00;1.60;;;;;;;11.57;56.25;101417.66;5112822;28;20818;-81
2022/04/16 03:33:08;;;;;;;1.58;1.50;;;;;;;11.56;56.06;101405.16;5112675;27;20413;-81
2022/04/16 03:35:35;;;;;;;1.40;1.40;;;;;;;11.42;56.50;101401.78;5111646;28;20400;-81
2022/04/16 03:38:00;;;;;;;1.90;1.60;;;;;;;11.36;57.23;101402.72;5110407;28;20413;-81
2022/04/16 03:40:26;;;;;;;1.20;1.20;;;;;;;11.52;56.86;101402.09;5110944;28;20408;-81
2022/04/16 03:43:01;;;;;;;1.63;1.60;;;;;;;11.58;56.23;101403.88;5109663;28;20384;-81
2022/04/16 03:45:31;;;;;;;1.50;1.50;;;;;;;11.60;56.20;101411.78;5111086;28;20423;-81
2022/04/16 03:47:58;;;;;;;1.40;1.40;;;;;;;11.52;56.38;101421.09;5101779;28;20393;-81
2022/04/16 03:50:26;;;;;;;1.93;1.83;;;;;;;11.38;56.75;101425.84;5112025;28;20399;-81
2022/04/16 03:52:53;;;;;;;1.40;1.30;;;;;;;11.42;56.60;101423.50;5111928;28;20380;-81
2022/04/16 04:00:50;;;;;;;1.60;1.60;;;;;;;11.30;57.18;101417.97;5111529;28;20415;-81
2022/04/16 04:03:16;;;;;;;1.52;1.52;;;;;;;11.32;57.19;101426.75;5110684;28;20395;-81
2022/04/16 04:05:48;;;;;;;19.80;2.58;;;;;;;11.28;57.06;101424.69;5111852;28;20380;-81
2022/04/16 04:08:14;;;;;;;1.80;1.70;;;;;;;11.34;57.29;101427.34;5112109;28;20392;-81
2022/04/16 04:10:39;;;;;;;2.15;1.45;;;;;;;11.32;57.01;101425.91;5109138;28;20411;-81
2022/04/16 04:13:05;;;;;;;1.80;1.70;;;;;;;11.24;57.16;101428.91;5109992;28;20724;-81
2022/04/16 04:15:30;;;;;;;1.60;1.60;;;;;;;11.31;56.99;101425.09;5111872;28;20384;-81
2022/04/16 04:17:56;;;;;;;2.67;1.73;;;;;;;11.24;57.42;101432.47;5109770;28;20432;-81
2022/04/16 04:20:23;;;;;;;1.65;1.60;;;;;;;11.18;57.52;101437.97;5111841;28;20409;-81
2022/04/16 04:22:48;;;;;;;1.70;1.60;;;;;;;11.11;57.39;101438.03;5110551;28;20388;-81
2022/04/16 04:25:14;;;;;;;1.70;1.60;;;;;;;11.06;57.63;101440.59;5111835;28;20950;-81
2022/04/16 04:27:39;;;;;;;1.87;1.77;;;;;;;11.04;58.03;101439.16;5110334;28;20800;-81
2022/04/16 04:30:05;;;;;;;1.90;1.80;;;;;;;11.11;57.71;101442.63;5111812;28;20383;-81
2022/04/16 04:32:31;;;;;;;1.57;1.57;;;;;;;11.06;57.92;101448.75;5110484;28;20446;-81
2022/04/16 04:34:56;;;;;;;2.20;2.10;;;;;;;11.06;57.73;101454.16;5090158;28;20481;-81
2022/04/16 04:37:22;;;;;;;1.73;1.70;;;;;;;11.06;57.65;101459.59;5104068;28;20778;-81
2022/04/16 04:39:47;;;;;;;1.60;1.60;;;;;;;11.05;57.86;101462.50;5110073;28;20510;-81
2022/04/16 04:42:25;;;;;;;5.00;2.08;;;;;;;11.00;57.98;101459.66;5111548;28;20437;-81
2022/04/16 04:44:51;;;;;;;1.92;1.83;;;;;;;11.00;58.10;101462.38;5111613;28;20387;-81
2022/04/16 04:47:16;;;;;;;1.60;1.50;;;;;;;11.01;57.89;101464.84;5107086;28;20491;-81
2022/04/16 04:49:41;;;;;;;2.03;2.00;;;;;;;10.97;57.99;101460.91;5114891;28;20774;-81
2022/04/16 04:52:07;;;;;;;1.90;1.80;;;;;;;10.93;58.37;101459.72;5115110;28;20420;-81
2022/04/16 04:54:32;;;;;;;2.17;2.00;;;;;;;10.93;58.37;101467.84;5115320;28;20781;-81
2022/04/16 04:56:57;;;;;;;2.67;1.90;;;;;;;10.92;57.89;101460.75;5114974;28;20395;-81
2022/04/16 04:59:23;;;;;;;2.10;2.00;;;;;;;10.89;58.26;101459.31;5113939;28;20910;-81
2022/04/16 05:01:48;;;;;;;1.93;1.83;;;;;;;10.95;58.34;101463.03;5112997;28;20465;-81
2022/04/16 05:04:13;;;;;;;1.80;1.70;;;;;;;10.92;58.37;101460.75;5114733;28;20427;-81
2022/04/16 05:06:38;;;;;;;1.70;1.70;;;;;;;10.89;58.25;101467.47;5112872;27;20897;-81
2022/04/16 05:09:04;;;;;;;2.00;1.90;;;;;;;10.85;58.54;101468.13;5114460;28;20432;-81
2022/04/16 05:11:29;;;;;;;1.63;1.57;;;;;;;10.92;58.17;101460.75;5114860;28;20486;-81
2022/04/16 05:13:54;;;;;;;2.10;2.00;;;;;;;10.96;58.38;101463.84;5114433;28;20396;-82
2022/04/16 05:16:20;;;;;;;3.45;2.20;;;;;;;10.93;58.36;101465.13;5114429;28;20393;-81
2022/04/16 05:18:45;;;;;;;2.17;2.07;;;;;;;10.94;58.48;101469.50;5113848;28;20400;-81
2022/04/16 05:21:10;;;;;;;1.70;1.70;;;;;;;11.01;58.48;101467.56;5113536;28;20883;-81
2022/04/16 05:23:39;;;;;;;1.63;1.63;;;;;;;10.99;58.85;101461.53;5108427;28;20504;-82
2022/04/16 05:26:05;;;;;;;1.80;1.70;;;;;;;10.95;58.97;101473.88;5114137;28;20388;-81
2022/04/16 05:28:30;;;;;;;1.80;1.70;;;;;;;10.97;59.22;101469.03;5114088;28;20400;-81
2022/04/16 05:30:58;;;;;;;1.80;1.80;;;;;;;11.05;58.97;101479.63;5113274;28;20465;-81
2022/04/16 05:36:08;;;;;;;2.15;2.05;;;;;;;11.07;59.02;101469.38;5105812;28;20734;-82
2022/04/16 05:38:33;;;;;;;2.33;2.07;;;;;;;11.07;58.76;101476.66;5095180;28;20408;-81
2022/04/16 05:40:58;;;;;;;1.70;1.60;;;;;;;11.07;59.12;101484.81;5114378;28;20441;-81
2022/04/16 05:43:24;;;;;;;2.00;1.90;;;;;;;11.09;59.01;101478.13;5113760;28;20798;-81
2022/04/16 05:45:49;;;;;;;2.23;2.13;;;;;;;11.09;58.91;101485.44;5109421;28;20418;-81
2022/04/16 05:48:15;;;;;;;2.10;2.00;;;;;;;11.04;58.73;101491.50;5107012;28;20446;-82
2022/04/16 05:50:40;;;;;;;2.10;2.00;;;;;;;10.98;59.02;101484.28;5111962;27;20404;-81
2022/04/16 05:53:11;;;;;;;2.00;1.83;;;;;;;10.94;59.27;101496.63;5121600;27;20469;-81
2022/04/16 05:55:39;;;;;;;2.10;2.00;;;;;;;10.98;59.46;101497.00;5103344;28;20495;-81
2022/04/16 05:58:04;;;;;;;1.52;1.52;;;;;;;11.14;59.35;101501.84;5112631;28;20469;-81
2022/04/16 06:00:29;;;;;;;1.90;1.80;;;;;;;11.29;58.83;101505.06;5112688;28;20800;-82
2022/04/16 06:02:56;;;;;;;2.95;2.00;;;;;;;11.41;58.55;101503.25;5094381;28;20411;-82
2022/04/16 06:05:22;;;;;;;1.70;1.50;;;;;;;11.50;58.40;101506.50;5113648;28;20415;-83
2022/04/16 06:07:47;;;;;;;2.22;2.10;;;;;;;11.58;58.25;101506.22;5114066;28;20877;-81
2022/04/16 06:10:13;;;;;;;1.98;1.88;;;;;;;11.61;58.02;101511.19;5115371;27;20402;-82
2022/04/16 06:12:38;;;;;;;3.00;2.50;;;;;;;11.58;57.87;101517.06;5112638;28;20404;-82
2022/04/16 06:15:04;;;;;;;2.40;2.20;;;;;;;11.54;58.19;101507.72;5109934;27;20411;-82
2022/04/16 06:17:29;;;;;;;2.13;2.03;;;;;;;11.62;58.14;101516.41;5113752;28;20391;-82
2022/04/16 06:19:54;;;;;;;2.73;2.33;;;;;;;11.65;58.17;101518.66;5110225;28;20404;-83
2022/04/16 06:22:20;;;;;;;2.00;1.90;;;;;;;11.74;58.03;101519.22;5112260;27;20435;-82
2022/04/16 06:24:46;;;;;;;2.22;2.08;;;;;;;11.80;57.53;101513.69;5113703;27;20400;-82
2022/04/16 06:27:12;;;;;;;4.22;2.60;;;;;;;11.88;57.52;101526.16;5114723;27;20396;-80
2022/04/16 06:29:38;;;;;;;3.20;2.13;;;;;;;11.93;57.66;101534.44;5113791;28;20470;-82
2022/04/16 06:32:04;;;;;;;2.10;2.00;;;;;;;11.99;56.93;101527.28;5113001;28;20409;-83
2022/04/16 06:34:29;;;;;;;2.00;1.90;;;;;;;12.00;56.88;101529.75;5111659;28;20400;-82
2022/04/16 06:36:54;;;;;;;1.90;1.80;;;;;;;12.03;56.92;101523.88;5110965;28;20426;-82
2022/04/16 06:39:20;;;;;;;1.90;1.80;;;;;;;12.04;57.09;101533.69;5112135;28;20403;-82
2022/04/16 06:41:45;;;;;;;1.93;1.80;;;;;;;12.06;56.92;101526.13;5114079;27;20392;-79
2022/04/16 06:44:10;;;;;;;2.17;2.10;;;;;;;12.05;56.93;101534.50;5112449;28;20392;-81
2022/04/16 06:46:35;;;;;;;2.33;2.20;;;;;;;12.10;56.77;101529.22;5113317;27;20400;-81
2022/04/16 06:49:01;;;;;;;2.25;2.15;;;;;;;12.13;56.59;101528.75;5110670;28;20401;-81
2022/04/16 06:51:26;;;;;;;2.60;2.43;;;;;;;12.12;56.28;101525.19;5105064;28;20409;-83
2022/04/16 06:53:51;;;;;;;2.25;2.13;;;;;;;12.14;56.63;101535.84;5112499;27;20411;-84
2022/04/16 06:56:17;;;;;;;2.20;2.10;;;;;;;12.21;56.67;101540.16;5112170;28;20396;-83
2022/04/16 06:58:42;;;;;;;2.20;1.90;;;;;;;12.19;56.89;101542.25;5110416;28;20491;-84
2022/04/16 07:01:08;;;;;;;2.17;2.07;;;;;;;12.35;56.96;101547.03;5112339;28;22000;-84
2022/04/16 07:03:34;;;;;;;2.40;2.30;;;;;;;12.46;56.59;101546.28;5112849;28;20422;-84
2022/04/16 07:05:59;;;;;;;2.50;2.30;;;;;;;12.55;56.61;101546.78;5122504;27;20431;-83
2022/04/16 07:08:25;;;;;;;3.27;2.77;;;;;;;12.50;56.46;101533.06;5105382;27;20384;-82
2022/04/16 07:10:50;;;;;;;2.95;2.72;;;;;;;12.54;56.35;101539.69;5112999;28;20400;-83
2022/04/16 07:13:15;;;;;;;3.57;3.27;;;;;;;12.56;56.59;101539.44;5116502;27;20798;-83
2022/04/16 07:15:40;;;;;;;8.97;2.93;;;;;;;12.56;56.67;101540.28;5110641;27;20417;-83
2022/04/16 07:18:07;;;;;;;3.20;3.00;;;;;;;12.57;56.46;101541.13;5108291;27;20408;-83
2022/04/16 07:20:33;;;;;;;3.22;2.72;;;;;;;12.45;57.31;101541.06;5110141;28;20771;-83
2022/04/16 07:22:59;;;;;;;4.13;3.28;;;;;;;12.45;57.33;101546.50;5107140;28;20441;-81
2022/04/16 07:25:24;;;;;;;3.42;3.17;;;;;;;12.51;57.20;101556.47;5097448;28;20560;-79
2022/04/16 07:27:49;;;;;;;3.17;2.97;;;;;;;12.62;56.88;101552.09;5100859;28;20414;-83
2022/04/16 07:30:15;;;;;;;3.10;2.83;;;;;;;12.62;57.05;101546.66;5107368;28;20918;-84
2022/04/16 07:32:40;;;;;;;3.43;3.17;;;;;;;12.67;57.18;101560.41;5110140;28;20807;-84
2022/04/16 07:35:06;;;;;;;3.60;3.40;;;;;;;12.78;57.26;101546.84;5109619;28;20452;-82
2022/04/16 07:37:31;;;;;;;3.42;3.22;;;;;;;12.77;56.83;101547.91;5109870;28;20412;-81
2022/04/16 07:39:57;;;;;;;3.67;3.37;;;;;;;12.91;56.95;101554.78;5109526;28;20420;-84
2022/04/16 07:42:28;;;;;;;3.63;3.42;;;;;;;12.99;56.67;101559.06;5107942;28;21306;-82
2022/04/16 07:44:54;;;;;;;5.40;4.07;;;;;;;12.95;56.12;101557.88;5106781;28;20386;-82
2022/04/16 07:47:19;;;;;;;3.65;3.35;;;;;;;12.99;56.76;101557.19;5109364;28;20419;-81
2022/04/16 07:49:45;;;;;;;4.13;3.83;;;;;;;13.07;56.43;101557.91;5107761;28;20405;-82
2022/04/16 07:52:10;;;;;;;3.67;3.47;;;;;;;13.05;56.43;101551.84;5107157;28;20384;-82
2022/04/16 07:54:37;;;;;;;4.00;3.60;;;;;;;13.15;56.52;101554.84;5110745;28;20463;-82
2022/04/16 07:57:05;;;;;;;3.72;3.53;;;;;;;13.09;56.71;101559.34;5111169;28;20895;-82
2022/04/16 07:59:31;;;;;;;4.22;3.83;;;;;;;13.09;56.71;101561.25;5111733;28;20423;-82
2022/04/16 08:01:56;;;;;;;4.20;3.72;;;;;;;13.07;56.46;101555.19;5111102;28;20376;-82
2022/04/16 08:04:25;;;;;;;3.57;3.37;;;;;;;13.18;57.00;101562.56;5107902;28;20425;-84
2022/04/16 08:06:51;;;;;;;4.47;4.07;;;;;;;13.24;57.06;101573.31;5110756;28;20887;-82
2022/04/16 08:09:17;;;;;;;4.10;3.80;;;;;;;13.37;56.45;101566.84;5108771;28;20426;-78
2022/04/16 08:11:43;;;;;;;4.67;4.27;;;;;;;13.46;56.53;101570.88;5109426;28;20489;-82
2022/04/16 08:14:08;;;;;;;5.17;4.03;;;;;;;13.50;56.19;101575.59;5102429;28;20447;-84
2022/04/16 08:16:33;;;;;;;6.15;5.65;;;;;;;13.55;56.78;101584.94;5108922;28;20392;-82
2022/04/16 08:18:59;;;;;;;7.10;4.20;;;;;;;13.58;56.48;101582.56;5107045;28;20396;-82
2022/04/16 08:21:28;;;;;;;5.25;4.75;;;;;;;13.61;56.85;101592.16;5110095;28;20777;-84
2022/04/16 08:24:13;;;;;;;5.05;4.70;;;;;;;13.53;56.92;101602.34;5111330;27;20396;-82
2022/04/16 08:26:39;;;;;;;7.20;4.85;;;;;;;13.38;56.89;101596.53;5108885;28;21163;-89
2022/04/16 08:29:05;;;;;;;5.10;4.68;;;;;;;13.32;56.68;101585.78;5108112;28;20400;-84
2022/04/16 08:31:30;;;;;;;4.70;4.30;;;;;;;13.35;57.13;101598.91;5109109;27;20443;-84
2022/04/16 08:33:55;;;;;;;4.80;4.40;;;;;;;13.41;56.63;101593.34;5108836;28;20421;-83
2022/04/16 08:36:21;;;;;;;7.37;4.40;;;;;;;13.45;56.88;101593.72;5113414;28;20400;-82
2022/04/16 08:38:46;;;;;;;4.50;4.10;;;;;;;13.48;56.68;101599.50;5110351;28;20406;-83
2022/04/16 08:41:12;;;;;;;4.97;4.50;;;;;;;13.44;56.42;101592.03;5110151;27;20437;-83
2022/04/16 08:43:39;;;;;;;5.23;4.73;;;;;;;13.46;56.44;101604.38;5104942;27;20409;-84
2022/04/16 08:46:04;;;;;;;4.43;4.07;;;;;;;13.50;56.34;101605.53;5103058;27;20755;-83
2022/04/16 08:48:33;;;;;;;4.68;4.28;;;;;;;13.60;56.32;101604.94;5114501;28;20376;-84
2022/04/16 08:51:00;;;;;;;4.70;4.30;;;;;;;13.73;55.45;101601.97;5105508;28;20416;-83
2022/04/16 08:53:25;;;;;;;4.78;4.47;;;;;;;13.83;55.50;101606.88;5111558;28;20486;-83
2022/04/16 08:55:51;;;;;;;6.13;4.60;;;;;;;14.00;55.45;101602.31;5108162;28;20775;-84
2022/04/16 08:58:16;;;;;;;4.20;3.90;;;;;;;14.14;54.99;101602.88;5110480;28;20861;-83
2022/04/16 09:00:41;;;;;;;4.50;4.20;;;;;;;14.19;55.02;101601.09;5106733;28;20440;-83
2022/04/16 09:03:09;;;;;;;4.53;4.10;;;;;;;14.60;54.74;101599.19;5106066;28;20407;-83
2022/04/16 09:05:35;;;;;;;4.50;4.10;;;;;;;15.25;52.71;101603.09;5114570;28;20525;-83
2022/04/16 09:08:03;;;;;;;4.50;4.15;;;;;;;15.94;51.37;101589.97;5110978;28;20405;-83
2022/04/16 09:10:30;;;;;;;3.78;3.47;;;;;;;16.01;50.51;101588.72;5103681;28;20480;-86
2022/04/16 09:12:59;;;;;;;4.13;3.83;;;;;;;16.10;49.87;101595.38;5102287;28;20394;-86
2022/04/16 09:15:26;;;;;;;4.67;4.27;;;;;;;15.99;49.15;101598.25;5099640;28;20400;-83
2022/04/16 09:17:59;;;;;;;4.50;4.13;;;;;;;16.00;49.12;101597.97;5114655;28;20403;-83
2022/04/16 09:20:30;;;;;;;8.73;4.18;;;;;;;15.92;47.99;101601.16;5114199;28;20797;-83
2022/04/16 09:22:55;;;;;;;4.25;3.95;;;;;;;15.73;48.58;101594.34;5108766;28;20402;-84
2022/04/16 09:25:20;;;;;;;5.30;3.77;;;;;;;15.55;49.07;101597.34;5109834;27;20735;-81
2022/04/16 09:27:49;;;;;;;4.13;3.80;;;;;;;15.58;48.97;101594.94;5113065;28;20400;-83
2022/04/16 09:30:32;;;;;;;4.10;3.80;;;;;;;16.07;48.34;101582.22;5109007;27;20385;-82
2022/04/16 09:32:59;;;;;;;5.18;4.70;;;;;;;16.50;47.14;101589.56;5102163;28;20723;-82
2022/04/16 09:35:33;;;;;;;5.15;4.68;;;;;;;16.28;47.07;101594.25;5098848;28;20388;-83
2022/04/16 09:38:00;;;;;;;7.10;4.78;;;;;;;16.25;47.17;101594.75;5108639;28;20404;-83
2022/04/16 09:40:27;;;;;;;4.60;4.20;;;;;;;15.97;47.49;101589.47;5110398;27;20408;-83
2022/04/16 09:42:57;;;;;;;4.68;4.28;;;;;;;16.89;45.81;101592.22;5109224;28;20771;-83
2022/04/16 09:45:23;;;;;;;3.78;3.53;;;;;;;17.79;43.27;101589.38;5110382;27;20479;-83
2022/04/16 09:47:50;;;;;;;4.00;3.70;;;;;;;18.56;40.48;101594.97;5108988;28;20489;-83
2022/04/16 09:50:18;;;;;;;9.10;4.15;;;;;;;18.93;39.12;101592.03;5121521;27;20404;-84
2022/04/16 09:52:48;;;;;;;4.25;3.95;;;;;;;19.12;39.15;101598.63;5105824;27;20426;-83
2022/04/16 09:55:14;;;;;;;4.97;4.63;;;;;;;18.87;39.31;101595.84;5106087;28;20434;-83
2022/04/16 09:57:40;;;;;;;5.38;4.30;;;;;;;18.63;39.38;101589.22;5110447;28;20479;-83
2022/04/16 10:00:07;;;;;;;4.45;4.03;;;;;;;18.29;40.53;101604.44;5110305;28;20408;-82
2022/04/16 10:02:34;;;;;;;4.60;4.30;;;;;;;18.12;41.11;101602.72;5108869;28;20426;-82
2022/04/16 10:05:00;;;;;;;5.53;4.70;;;;;;;18.16;41.17;101611.25;5110605;28;20476;-83
2022/04/16 10:07:25;;;;;;;4.17;3.87;;;;;;;18.51;40.58;101599.59;5112296;28;20849;-82
2022/04/16 10:09:53;;;;;;;4.33;3.93;;;;;;;18.82;39.82;101611.50;5111626;28;20899;-83
2022/04/16 10:15:08;;;;;;;5.63;4.80;;;;;;;19.74;37.34;101603.00;5112091;28;20950;-88
2022/04/16 10:17:44;;;;;;;4.93;4.63;;;;;;;19.28;38.20;101609.63;5109528;28;20411;-86
2022/04/16 10:20:15;;;;;;;5.50;5.00;;;;;;;18.61;39.26;101616.94;5105577;28;20814;-88
2022/04/16 10:22:52;;;;;;;5.72;4.85;;;;;;;18.01;41.04;101617.47;5100786;28;20392;-84
2022/04/16 10:25:29;;;;;;;4.88;4.47;;;;;;;17.67;42.01;101618.09;5107603;28;20443;-84
2022/04/16 10:28:03;;;;;;;5.38;4.97;;;;;;;17.73;41.69;101611.53;5113454;28;20441;-87
2022/04/16 10:30:40;;;;;;;4.63;4.22;;;;;;;17.58;42.18;101615.81;5111845;28;20411;-86
2022/04/16 10:33:23;;;;;;;4.70;4.28;;;;;;;19.44;38.07;101616.78;5106806;28;20397;-86
2022/04/16 10:35:49;;;;;;;4.25;3.97;;;;;;;19.73;36.33;101612.34;5110310;28;20387;-83
2022/04/16 10:38:23;;;;;;;4.10;3.80;;;;;;;18.84;37.35;101614.78;5101334;28;20480;-84
2022/04/16 10:40:58;;;;;;;19.50;5.05;;;;;;;17.93;39.45;101603.44;5110590;28;20416;-83
2022/04/16 10:43:32;;;;;;;13.00;4.35;;;;;;;17.76;40.72;101611.84;5107168;28;20505;-83
2022/04/16 10:46:06;;;;;;;3.28;2.97;;;;;;;17.79;39.50;101613.22;5105277;28;20896;-83
2022/04/16 10:48:33;;;;;;;4.22;3.40;;;;;;;17.42;40.15;101607.75;5112805;28;20396;-84
2022/04/16 10:51:00;;;;;;;4.03;3.50;;;;;;;17.07;40.98;101611.00;5100346;28;20435;-85
2022/04/16 10:53:33;;;;;;;4.45;3.33;;;;;;;17.07;41.91;101613.72;5105577;28;20868;-85
2022/04/16 10:56:11;;;;;;;3.30;3.10;;;;;;;16.82;41.07;101605.28;5095130;28;20392;-86
2022/04/16 10:58:39;;;;;;;2.22;2.13;;;;;;;18.26;38.79;101608.56;5105020;28;20822;-87
2022/04/16 11:01:07;;;;;;;1.85;1.75;;;;;;;20.00;34.82;101601.84;5102698;28;20511;-84
2022/04/16 11:03:35;;;;;;;2.90;2.38;;;;;;;21.27;32.60;101599.25;5092253;28;21043;-88
2022/04/16 11:06:04;;;;;;;1.75;1.70;;;;;;;20.80;31.74;101596.25;5112450;28;20506;-85
2022/04/16 11:08:34;;;;;;;1.27;1.27;;;;;;;19.50;32.20;101611.00;5110189;27;20394;-88
2022/04/16 11:10:59;;;;;;;1.40;1.40;;;;;;;19.80;32.79;101595.56;5115961;27;20397;-88
2022/04/16 11:13:26;;;;;;;1.83;1.60;;;;;;;21.09;31.44;101592.50;5111928;27;20886;-88
2022/04/16 11:15:51;;;;;;;2.70;1.58;;;;;;;20.73;32.21;101585.56;5112792;28;20377;-87
2022/04/16 11:18:18;;;;;;;1.90;1.80;;;;;;;19.98;32.69;101594.97;5109720;28;20400;-86
2022/04/16 11:20:53;;;;;;;2.20;2.10;;;;;;;18.92;35.01;101598.63;5112385;28;20764;-86
2022/04/16 11:23:18;;;;;;;3.55;2.42;;;;;;;18.88;35.22;101602.16;5112341;28;20874;-89
2022/04/16 11:34:20;;;;;;;1.90;1.80;;;;;;;21.23;30.04;101587.16;5104841;28;20807;-86
2022/04/16 11:36:50;;;;;;;2.03;1.93;;;;;;;19.92;32.51;101590.59;5105639;28;20442;-86
2022/04/16 11:39:35;;;;;;;1.88;1.77;;;;;;;19.27;34.16;101586.81;5111870;28;20404;-86
2022/04/16 11:42:10;;;;;;;2.33;2.22;;;;;;;18.86;34.78;101585.97;5107143;28;20400;-88
2022/04/16 11:44:45;;;;;;;2.63;2.42;;;;;;;18.56;35.19;101581.25;5108556;28;20392;-86
2022/04/16 11:47:27;;;;;;;2.00;1.90;;;;;;;19.61;34.33;101587.09;5093994;28;20583;-86